createdAt,value
2022-11-17T00:01:35.331Z,35.70
2022-11-17T00:04:43.841Z,36.60
2022-11-17T00:07:52.260Z,34.90
2022-11-17T00:11:02.419Z,33.80
2022-11-17T00:14:30.985Z,32.00
2022-11-17T00:17:38.957Z,33.00
2022-11-17T00:21:05.160Z,34.50
2022-11-17T00:24:16.600Z,30.20
2022-11-17T00:27:24.863Z,34.30
2022-11-17T00:30:58.596Z,34.90
2022-11-17T00:34:06.928Z,31.90
2022-11-17T00:37:16.889Z,34.80
2022-11-17T00:43:31.816Z,32.90
2022-11-17T00:46:41.574Z,32.30
2022-11-17T00:49:49.271Z,34.10
2022-11-17T00:52:57.628Z,34.10
2022-11-17T00:56:05.461Z,31.40
2022-11-17T00:59:15.505Z,33.70
2022-11-17T01:02:23.566Z,33.40
2022-11-17T01:05:33.111Z,36.60
2022-11-17T01:08:41.830Z,34.60
2022-11-17T01:11:52.192Z,33.40
2022-11-17T01:15:00.127Z,32.70
2022-11-17T01:18:09.253Z,29.20
2022-11-17T01:21:20.644Z,34.10
2022-11-17T01:24:28.986Z,30.80
2022-11-17T01:27:36.754Z,32.10
2022-11-17T01:30:44.951Z,32.60
2022-11-17T01:33:54.033Z,34.10
2022-11-17T01:37:20.822Z,33.50
2022-11-17T01:40:28.556Z,30.80
2022-11-17T01:43:46.536Z,34.20
2022-11-17T01:46:59.677Z,30.40
2022-11-17T01:50:24.729Z,33.00
2022-11-17T01:53:35.569Z,29.90
2022-11-17T01:56:52.624Z,31.40
2022-11-17T02:00:06.271Z,33.40
2022-11-17T02:03:15.087Z,31.40
2022-11-17T02:06:29.128Z,31.80
2022-11-17T02:09:40.619Z,32.60
2022-11-17T02:12:53.349Z,33.70
2022-11-17T02:16:01.472Z,26.90
2022-11-17T02:19:10.762Z,32.10
2022-11-17T02:22:54.001Z,34.80
2022-11-17T02:27:15.652Z,29.90
2022-11-17T02:30:25.796Z,29.80
2022-11-17T02:33:46.593Z,30.80
2022-11-17T02:37:05.507Z,30.40
2022-11-17T02:40:22.103Z,31.70
2022-11-17T02:44:00.564Z,26.70
2022-11-17T02:47:14.221Z,30.90
2022-11-17T02:50:28.448Z,31.60
2022-11-17T02:53:38.580Z,33.90
2022-11-17T02:56:47.738Z,32.20
2022-11-17T02:59:56.601Z,32.80
2022-11-17T03:03:35.560Z,32.20
2022-11-17T03:06:58.345Z,29.80
2022-11-17T03:10:16.733Z,31.20
2022-11-17T03:13:37.804Z,30.60
2022-11-17T03:16:57.487Z,34.40
2022-11-17T03:20:14.860Z,27.60
2022-11-17T03:23:26.901Z,26.50
2022-11-17T03:26:40.504Z,31.30
2022-11-17T03:29:54.372Z,30.70
2022-11-17T03:33:11.196Z,29.40
2022-11-17T03:36:29.021Z,32.10
2022-11-17T03:39:41.823Z,30.20
2022-11-17T03:42:54.640Z,28.00
2022-11-17T03:46:10.133Z,30.70
2022-11-17T03:49:30.735Z,32.00
2022-11-17T03:52:40.307Z,30.70
2022-11-17T03:56:00.383Z,32.40
2022-11-17T03:59:17.541Z,36.60
2022-11-17T04:02:27.871Z,36.70
2022-11-17T04:05:35.774Z,32.80
2022-11-17T04:08:44.521Z,30.20
2022-11-17T04:12:10.225Z,29.50
2022-11-17T04:15:36.042Z,31.50
2022-11-17T04:18:44.847Z,35.50
2022-11-17T04:21:53.241Z,29.40
2022-11-17T04:25:00.964Z,28.70
2022-11-17T04:28:27.418Z,30.10
2022-11-17T04:31:35.767Z,26.10
2022-11-17T04:34:44.159Z,28.20
2022-11-17T04:37:52.255Z,27.50
2022-11-17T04:41:24.649Z,28.30
2022-11-17T04:44:34.374Z,31.80
2022-11-17T04:47:42.960Z,31.50
2022-11-17T04:50:54.296Z,29.10
2022-11-17T04:54:02.755Z,32.10
2022-11-17T04:57:10.554Z,29.40
2022-11-17T05:00:20.995Z,31.00
2022-11-17T05:03:28.728Z,32.10
2022-11-17T05:06:39.408Z,27.80
2022-11-17T05:09:47.652Z,30.90
2022-11-17T05:13:13.638Z,31.40
2022-11-17T05:16:40.675Z,28.40
2022-11-17T05:19:50.902Z,30.40
2022-11-17T05:23:12.615Z,30.60
2022-11-17T05:26:21.592Z,37.10
2022-11-17T05:29:29.455Z,37.10
2022-11-17T05:32:37.648Z,29.80
2022-11-17T05:35:46.090Z,31.10
2022-11-17T05:38:54.991Z,29.30
2022-11-17T05:42:02.767Z,26.80
2022-11-17T05:45:12.852Z,33.00
2022-11-17T05:48:21.309Z,27.20
2022-11-17T05:51:30.454Z,31.90
2022-11-17T05:54:38.271Z,32.60
2022-11-17T05:57:47.176Z,29.10
2022-11-17T06:00:58.631Z,29.90
2022-11-17T06:04:09.498Z,30.10
2022-11-17T06:07:18.694Z,39.90
2022-11-17T06:10:29.037Z,33.60
2022-11-17T06:13:37.190Z,35.20
2022-11-17T06:16:51.693Z,29.20
2022-11-17T06:20:06.983Z,27.70
2022-11-17T06:23:17.027Z,29.70
2022-11-17T06:26:24.893Z,32.20
2022-11-17T06:29:33.565Z,28.30
2022-11-17T06:32:44.402Z,27.60
2022-11-17T06:35:53.773Z,24.70
2022-11-17T06:39:02.013Z,28.10
2022-11-17T06:42:10.150Z,28.20
2022-11-17T06:45:18.332Z,28.00
2022-11-17T06:48:27.450Z,26.90
2022-11-17T06:51:35.452Z,27.90
2022-11-17T06:54:43.904Z,27.20
2022-11-17T06:57:53.664Z,29.20
2022-11-17T07:01:11.393Z,25.20
2022-11-17T07:04:19.873Z,27.10
2022-11-17T07:07:28.562Z,26.20
2022-11-17T07:10:38.556Z,24.10
2022-11-17T07:16:54.010Z,26.30
2022-11-17T07:20:02.435Z,23.40
2022-11-17T07:23:10.460Z,26.80
2022-11-17T07:26:19.345Z,26.00
2022-11-17T07:29:29.022Z,29.30
2022-11-17T07:32:37.541Z,28.70
2022-11-17T07:35:45.898Z,28.80
2022-11-17T07:38:54.354Z,27.00
2022-11-17T07:42:02.518Z,24.10
2022-11-17T07:45:12.692Z,28.20
2022-11-17T07:48:20.503Z,25.00
2022-11-17T07:51:28.711Z,27.30
2022-11-17T07:54:36.594Z,29.00
2022-11-17T07:57:44.574Z,26.70
2022-11-17T08:00:52.534Z,27.20
2022-11-17T08:04:01.619Z,26.10
2022-11-17T08:07:09.651Z,26.30
2022-11-17T08:10:18.915Z,26.80
2022-11-17T08:13:28.162Z,27.10
2022-11-17T08:16:36.441Z,27.50
2022-11-17T08:19:44.456Z,23.10
2022-11-17T08:22:56.216Z,24.40
2022-11-17T08:26:05.042Z,26.00
2022-11-17T08:29:13.633Z,24.70
2022-11-17T08:32:22.546Z,25.50
2022-11-17T08:35:37.384Z,22.20
2022-11-17T08:38:46.022Z,23.80
2022-11-17T08:41:55.618Z,25.50
2022-11-17T08:45:04.049Z,22.30
2022-11-17T08:48:12.286Z,22.00
2022-11-17T08:51:20.055Z,23.70
2022-11-17T08:54:28.256Z,21.20
2022-11-17T08:57:37.338Z,22.00
2022-11-17T09:00:47.827Z,22.40
2022-11-17T09:03:55.872Z,22.50
2022-11-17T09:07:04.709Z,20.70
2022-11-17T09:10:15.116Z,22.20
2022-11-17T09:13:23.664Z,21.60
2022-11-17T09:16:31.738Z,21.60
2022-11-17T09:19:42.823Z,19.60
2022-11-17T09:22:51.015Z,20.80
2022-11-17T09:25:59.249Z,20.30
2022-11-17T09:29:07.588Z,23.10
2022-11-17T09:32:17.125Z,20.60
2022-11-17T09:35:27.784Z,22.60
2022-11-17T09:38:37.443Z,18.60
2022-11-17T09:41:50.281Z,21.80
2022-11-17T09:45:06.477Z,19.70
2022-11-17T09:48:40.769Z,20.10
2022-11-17T09:51:53.568Z,18.90
2022-11-17T09:55:05.570Z,20.40
2022-11-17T09:58:28.376Z,20.00
2022-11-17T10:01:36.639Z,19.70
2022-11-17T10:04:46.326Z,19.20
2022-11-17T10:08:00.033Z,19.40
2022-11-17T10:11:27.289Z,21.60
2022-11-17T10:14:43.939Z,17.50
2022-11-17T10:17:53.817Z,18.40
2022-11-17T10:24:09.382Z,16.50
2022-11-17T10:27:26.176Z,18.20
2022-11-17T10:30:35.188Z,18.60
2022-11-17T10:33:47.721Z,15.20
2022-11-17T10:36:56.134Z,15.20
2022-11-17T10:40:25.710Z,16.80
2022-11-17T10:47:03.112Z,14.40
2022-11-17T10:50:23.257Z,14.00
2022-11-17T10:53:43.377Z,15.80
2022-11-17T10:56:59.402Z,17.30
2022-11-17T11:00:26.904Z,16.40
2022-11-17T11:03:37.739Z,16.40
2022-11-17T11:06:46.262Z,14.00
2022-11-17T11:10:06.045Z,13.10
2022-11-17T11:16:32.618Z,15.10
2022-11-17T11:19:41.079Z,15.60
2022-11-17T11:22:58.624Z,15.70
2022-11-17T11:26:24.314Z,15.10
2022-11-17T11:29:48.885Z,14.40
2022-11-17T11:33:23.874Z,13.50
2022-11-17T11:36:43.371Z,17.00
2022-11-17T11:40:02.765Z,15.70
2022-11-17T11:43:37.639Z,14.70
2022-11-17T11:46:59.634Z,12.20
2022-11-17T11:50:17.523Z,13.60
2022-11-17T11:53:43.024Z,15.80
2022-11-17T11:56:53.730Z,16.00
2022-11-17T12:00:15.099Z,16.00
2022-11-17T12:03:35.223Z,14.60
2022-11-17T12:06:54.176Z,13.90
2022-11-17T12:10:14.905Z,12.80
2022-11-17T12:13:25.445Z,14.20
2022-11-17T12:16:37.612Z,14.10
2022-11-17T12:19:57.383Z,14.60
2022-11-17T12:23:41.513Z,16.90
2022-11-17T12:26:50.167Z,15.20
2022-11-17T12:29:58.502Z,14.80
2022-11-17T12:33:09.174Z,13.80
2022-11-17T12:36:34.009Z,14.20
2022-11-17T12:40:04.869Z,14.30
2022-11-17T12:43:28.169Z,15.10
2022-11-17T12:46:37.968Z,13.30
2022-11-17T12:50:13.867Z,14.00
2022-11-17T12:53:54.839Z,14.30
2022-11-17T12:57:11.087Z,16.80
2022-11-17T13:00:25.977Z,14.50
2022-11-17T13:03:49.907Z,13.40
2022-11-17T13:07:07.151Z,13.50
2022-11-17T13:10:31.174Z,14.70
2022-11-17T13:13:45.490Z,14.60
2022-11-17T13:16:55.864Z,13.40
2022-11-17T13:20:14.732Z,14.20
2022-11-17T13:23:28.050Z,11.70
2022-11-17T13:26:38.372Z,11.60
2022-11-17T13:29:48.044Z,10.50
2022-11-17T13:32:57.083Z,11.00
2022-11-17T13:36:20.236Z,10.00
2022-11-17T13:39:29.422Z,10.90
2022-11-17T13:42:38.081Z,11.50
2022-11-17T13:45:47.354Z,17.50
2022-11-17T13:48:56.467Z,14.70
2022-11-17T13:52:05.419Z,15.60
2022-11-17T13:55:20.556Z,14.10
2022-11-17T13:58:40.086Z,12.60
2022-11-17T14:01:48.192Z,14.20
2022-11-17T14:05:24.072Z,13.40
2022-11-17T14:08:36.529Z,12.60
2022-11-17T14:11:46.570Z,12.40
2022-11-17T14:14:54.855Z,12.40
2022-11-17T14:18:08.386Z,13.90
2022-11-17T14:21:19.312Z,13.80
2022-11-17T14:24:28.664Z,14.30
2022-11-17T14:27:43.365Z,15.80
2022-11-17T14:30:55.653Z,14.00
2022-11-17T14:34:05.190Z,15.00
2022-11-17T14:37:14.352Z,13.50
2022-11-17T14:40:23.068Z,15.10
2022-11-17T14:43:32.351Z,13.50
2022-11-17T14:46:42.092Z,13.50
2022-11-17T14:49:50.420Z,16.30
2022-11-17T14:52:58.623Z,13.70
2022-11-17T14:56:15.057Z,13.00
2022-11-17T14:59:23.377Z,14.00
2022-11-17T15:02:32.551Z,19.50
2022-11-17T15:05:47.326Z,17.00
2022-11-17T15:09:02.134Z,13.40
2022-11-17T15:12:11.385Z,14.20
2022-11-17T15:15:19.606Z,13.00
2022-11-17T15:18:27.984Z,19.80
2022-11-17T15:21:37.214Z,19.30
2022-11-17T15:24:45.829Z,14.30
2022-11-17T15:27:54.929Z,12.90
2022-11-17T15:31:12.168Z,14.10
2022-11-17T15:34:21.578Z,12.90
2022-11-17T15:37:30.672Z,13.70
2022-11-17T15:40:39.086Z,13.90
2022-11-17T15:43:48.634Z,17.60
2022-11-17T15:46:56.743Z,15.80
2022-11-17T15:50:05.429Z,14.80
2022-11-17T15:53:13.607Z,15.30
2022-11-17T15:56:25.027Z,14.20
2022-11-17T15:59:34.534Z,13.90
2022-11-17T16:02:46.311Z,12.90
2022-11-17T16:05:56.633Z,11.60
2022-11-17T16:09:06.992Z,12.40
2022-11-17T16:12:17.831Z,13.20
2022-11-17T16:15:26.393Z,13.10
2022-11-17T16:18:37.751Z,12.70
2022-11-17T16:21:46.381Z,13.60
2022-11-17T16:24:54.646Z,14.00
2022-11-17T16:28:02.761Z,13.50
2022-11-17T16:31:23.482Z,13.50
2022-11-17T16:34:31.808Z,15.90
2022-11-17T16:37:39.891Z,16.30
2022-11-17T16:40:48.984Z,16.20
2022-11-17T16:43:58.815Z,16.90
2022-11-17T16:50:14.140Z,13.80
2022-11-17T16:53:22.339Z,13.30
2022-11-17T16:56:30.712Z,14.00
2022-11-17T16:59:38.628Z,32.00
2022-11-17T17:02:49.824Z,37.30
2022-11-17T17:05:58.195Z,48.10
2022-11-17T17:09:11.192Z,86.30
2022-11-17T17:12:19.501Z,60.70
2022-11-17T17:15:29.720Z,56.80
2022-11-17T17:18:38.544Z,57.30
2022-11-17T17:21:50.386Z,61.50
2022-11-17T17:24:58.407Z,66.10
2022-11-17T17:28:06.528Z,64.70
2022-11-17T17:31:21.032Z,62.00
2022-11-17T17:34:30.018Z,56.30
2022-11-17T17:37:38.366Z,52.70
2022-11-17T17:40:46.831Z,61.00
2022-11-17T17:44:04.197Z,51.70
2022-11-17T17:47:12.185Z,56.10
2022-11-17T17:50:20.708Z,43.80
2022-11-17T17:53:29.634Z,31.60
2022-11-17T17:56:38.374Z,29.80
2022-11-17T17:59:46.620Z,31.80
2022-11-17T18:02:54.956Z,31.60
2022-11-17T18:06:05.255Z,23.10
2022-11-17T18:09:19.931Z,25.60
2022-11-17T18:12:29.033Z,26.40
2022-11-17T18:15:39.799Z,25.00
2022-11-17T18:18:48.521Z,28.30
2022-11-17T18:21:57.040Z,26.40
2022-11-17T18:25:07.847Z,23.50
2022-11-17T18:28:15.977Z,23.50
2022-11-17T18:31:26.329Z,23.50
2022-11-17T18:34:35.474Z,22.80
2022-11-17T18:37:44.471Z,22.90
2022-11-17T18:40:56.791Z,24.20
2022-11-17T18:44:08.400Z,21.40
2022-11-17T18:47:18.830Z,22.50
2022-11-17T18:50:27.165Z,24.80
2022-11-17T18:53:36.104Z,27.20
2022-11-17T18:56:45.547Z,25.70
2022-11-17T18:59:53.761Z,25.90
2022-11-17T19:03:01.934Z,24.50
2022-11-17T19:06:13.275Z,24.60
2022-11-17T19:09:21.490Z,21.20
2022-11-17T19:12:29.741Z,24.60
2022-11-17T19:15:38.983Z,22.60
2022-11-17T19:18:49.744Z,25.60
2022-11-17T19:21:57.910Z,22.70
2022-11-17T19:25:05.936Z,25.90
2022-11-17T19:28:17.113Z,24.70
2022-11-17T19:31:26.264Z,25.90
2022-11-17T19:34:34.320Z,25.10
2022-11-17T19:37:43.339Z,25.90
2022-11-17T19:40:51.665Z,23.80
2022-11-17T19:44:02.478Z,25.00
2022-11-17T19:47:11.071Z,27.40
2022-11-17T19:50:21.192Z,27.00
2022-11-17T19:53:29.685Z,28.00
2022-11-17T19:56:38.598Z,25.80
2022-11-17T19:59:46.578Z,28.00
2022-11-17T20:02:55.702Z,27.00
2022-11-17T20:06:06.039Z,24.90
2022-11-17T20:09:16.268Z,26.60
2022-11-17T20:12:24.633Z,24.90
2022-11-17T20:15:35.093Z,27.40
2022-11-17T20:18:44.761Z,30.10
2022-11-17T20:21:53.380Z,29.50
2022-11-17T20:25:03.838Z,29.60
2022-11-17T20:28:11.973Z,29.10
2022-11-17T20:31:24.383Z,25.80
2022-11-17T20:34:32.380Z,29.90
2022-11-17T20:37:40.927Z,30.80
2022-11-17T20:40:50.180Z,34.10
2022-11-17T20:43:59.684Z,31.20
2022-11-17T20:47:07.899Z,31.10
2022-11-17T20:50:16.301Z,28.70
2022-11-17T20:53:24.571Z,29.70
2022-11-17T20:56:32.784Z,31.40
2022-11-17T20:59:40.971Z,28.20
2022-11-17T21:02:50.417Z,26.80
2022-11-17T21:06:04.923Z,30.50
2022-11-17T21:09:12.984Z,29.70
2022-11-17T21:12:21.302Z,28.30
2022-11-17T21:15:30.284Z,25.60
2022-11-17T21:18:40.735Z,29.70
2022-11-17T21:21:50.663Z,28.00
2022-11-17T21:28:05.191Z,24.30
2022-11-17T21:31:17.324Z,26.90
2022-11-17T21:34:25.405Z,30.00
2022-11-17T21:37:33.733Z,27.00
2022-11-17T21:40:43.090Z,30.80
2022-11-17T21:43:53.980Z,29.00
2022-11-17T21:47:02.454Z,28.00
2022-11-17T21:50:13.482Z,32.00
2022-11-17T21:53:21.696Z,26.90
2022-11-17T21:56:32.308Z,29.30
2022-11-17T21:59:40.325Z,29.80
2022-11-17T22:02:48.946Z,30.10
2022-11-17T22:06:05.701Z,28.50
2022-11-17T22:09:14.619Z,26.10
2022-11-17T22:12:23.025Z,27.60
2022-11-17T22:15:31.240Z,25.80
2022-11-17T22:18:39.434Z,24.50
2022-11-17T22:21:51.256Z,26.40
2022-11-17T22:25:16.758Z,25.60
2022-11-17T22:28:29.255Z,26.60
2022-11-17T22:31:37.359Z,27.00
2022-11-17T22:34:45.894Z,25.10
2022-11-17T22:37:53.984Z,26.80
2022-11-17T22:41:06.413Z,25.90
2022-11-17T22:44:17.814Z,26.70
2022-11-17T22:47:25.988Z,24.50
2022-11-17T22:50:33.944Z,21.70
2022-11-17T22:53:42.459Z,22.70
2022-11-17T22:56:50.424Z,25.10
2022-11-17T22:59:58.767Z,22.40
2022-11-17T23:03:06.882Z,25.90
2022-11-17T23:06:15.079Z,22.90
2022-11-17T23:09:23.405Z,24.60
2022-11-17T23:12:31.522Z,25.80
2022-11-17T23:15:44.774Z,24.40
2022-11-17T23:19:00.163Z,26.10
2022-11-17T23:22:08.460Z,23.80
2022-11-17T23:25:16.343Z,25.00
2022-11-17T23:28:24.757Z,25.10
2022-11-17T23:31:32.783Z,29.20
2022-11-17T23:34:40.991Z,30.60
2022-11-17T23:37:48.974Z,30.70
2022-11-17T23:41:01.883Z,30.60
2022-11-17T23:44:10.665Z,23.90
2022-11-17T23:47:18.653Z,21.20
2022-11-17T23:50:26.636Z,22.40
2022-11-17T23:53:34.899Z,19.30
2022-11-17T23:56:43.931Z,24.00
2022-11-17T23:59:52.005Z,27.40
